sensor_id;sensor_type;location;lat;lon;timestamp;pressure;altitude;pressure_sealevel;temperature;humidity
75006;BME280;63553;51.814;4.600;2023-06-26T00:02:23;101391.16;;;26.58;50.50
75006;BME280;63553;51.814;4.600;2023-06-26T00:04:49;101391.53;;;26.60;50.46
75006;BME280;63553;51.814;4.600;2023-06-26T00:07:14;101397.75;;;26.47;50.63
75006;BME280;63553;51.814;4.600;2023-06-26T00:09:40;101404.88;;;26.73;49.69
75006;BME280;63553;51.814;4.600;2023-06-26T00:12:06;101397.59;;;26.69;50.12
75006;BME280;63553;51.814;4.600;2023-06-26T00:14:31;101402.53;;;26.61;50.33
75006;BME280;63553;51.814;4.600;2023-06-26T00:16:56;101403.78;;;26.57;49.92
75006;BME280;63553;51.814;4.600;2023-06-26T00:19:22;101402.53;;;26.61;50.38
75006;BME280;63553;51.814;4.600;2023-06-26T00:21:47;101405.81;;;26.60;49.96
75006;BME280;63553;51.814;4.600;2023-06-26T00:24:16;101413.66;;;26.45;50.29
75006;BME280;63553;51.814;4.600;2023-06-26T00:26:42;101422.56;;;26.50;50.61
75006;BME280;63553;51.814;4.600;2023-06-26T00:29:07;101420.09;;;26.52;50.25
75006;BME280;63553;51.814;4.600;2023-06-26T00:31:33;101416.88;;;26.47;50.47
75006;BME280;63553;51.814;4.600;2023-06-26T00:34:00;101414.00;;;26.54;50.86
75006;BME280;63553;51.814;4.600;2023-06-26T00:36:25;101415.69;;;26.41;50.77
75006;BME280;63553;51.814;4.600;2023-06-26T00:38:51;101432.53;;;26.21;51.81
75006;BME280;63553;51.814;4.600;2023-06-26T00:41:17;101418.19;;;26.32;51.25
75006;BME280;63553;51.814;4.600;2023-06-26T00:43:42;101412.16;;;26.19;51.42
75006;BME280;63553;51.814;4.600;2023-06-26T00:46:09;101409.63;;;26.32;51.54
75006;BME280;63553;51.814;4.600;2023-06-26T00:48:36;101415.03;;;26.12;51.52
75006;BME280;63553;51.814;4.600;2023-06-26T00:51:02;101419.50;;;26.10;51.47
75006;BME280;63553;51.814;4.600;2023-06-26T00:53:27;101426.00;;;26.21;51.23
75006;BME280;63553;51.814;4.600;2023-06-26T00:55:53;101420.72;;;26.12;51.23
75006;BME280;63553;51.814;4.600;2023-06-26T00:58:20;101430.09;;;26.13;51.38
75006;BME280;63553;51.814;4.600;2023-06-26T01:00:47;101428.47;;;26.05;52.19
75006;BME280;63553;51.814;4.600;2023-06-26T01:03:12;101432.53;;;26.18;52.52
75006;BME280;63553;51.814;4.600;2023-06-26T01:05:37;101434.09;;;26.33;51.59
75006;BME280;63553;51.814;4.600;2023-06-26T01:08:03;101433.28;;;26.25;51.10
75006;BME280;63553;51.814;4.600;2023-06-26T01:10:30;101440.19;;;26.35;51.32
75006;BME280;63553;51.814;4.600;2023-06-26T01:12:57;101441.47;;;26.20;51.80
75006;BME280;63553;51.814;4.600;2023-06-26T01:15:22;101441.09;;;26.18;51.73
75006;BME280;63553;51.814;4.600;2023-06-26T01:17:49;101437.41;;;26.14;51.81
75006;BME280;63553;51.814;4.600;2023-06-26T01:20:15;101443.56;;;26.02;51.87
75006;BME280;63553;51.814;4.600;2023-06-26T01:22:57;101441.13;;;26.07;52.23
75006;BME280;63553;51.814;4.600;2023-06-26T01:28:04;101435.56;;;25.65;53.37
75006;BME280;63553;51.814;4.600;2023-06-26T01:30:31;101426.56;;;25.80;52.99
75006;BME280;63553;51.814;4.600;2023-06-26T01:32:58;101425.31;;;25.85;53.28
75006;BME280;63553;51.814;4.600;2023-06-26T01:35:23;101423.66;;;25.94;52.64
75006;BME280;63553;51.814;4.600;2023-06-26T01:37:49;101423.59;;;26.02;52.54
75006;BME280;63553;51.814;4.600;2023-06-26T01:40:15;101419.16;;;25.93;52.95
75006;BME280;63553;51.814;4.600;2023-06-26T01:42:40;101424.56;;;25.67;54.14
75006;BME280;63553;51.814;4.600;2023-06-26T01:45:20;101421.25;;;25.82;53.38
75006;BME280;63553;51.814;4.600;2023-06-26T01:47:50;101429.38;;;25.87;53.58
75006;BME280;63553;51.814;4.600;2023-06-26T01:50:19;101429.75;;;25.93;53.37
75006;BME280;63553;51.814;4.600;2023-06-26T01:53:12;101429.41;;;25.80;53.88
75006;BME280;63553;51.814;4.600;2023-06-26T01:55:46;101433.88;;;25.81;54.01
75006;BME280;63553;51.814;4.600;2023-06-26T01:58:13;101443.28;;;25.71;54.30
75006;BME280;63553;51.814;4.600;2023-06-26T02:00:40;101442.47;;;25.71;54.34
75006;BME280;63553;51.814;4.600;2023-06-26T02:03:05;101431.44;;;25.80;53.68
75006;BME280;63553;51.814;4.600;2023-06-26T02:05:32;101431.00;;;25.81;53.61
75006;BME280;63553;51.814;4.600;2023-06-26T02:07:57;101425.69;;;25.87;53.71
75006;BME280;63553;51.814;4.600;2023-06-26T02:10:23;101444.09;;;25.58;54.70
75006;BME280;63553;51.814;4.600;2023-06-26T02:12:48;101449.81;;;25.58;54.81
75006;BME280;63553;51.814;4.600;2023-06-26T02:15:13;101442.47;;;25.67;54.24
75006;BME280;63553;51.814;4.600;2023-06-26T02:17:39;101442.47;;;25.67;54.49
75006;BME280;63553;51.814;4.600;2023-06-26T02:20:05;101447.38;;;25.53;54.97
75006;BME280;63553;51.814;4.600;2023-06-26T02:22:31;101449.38;;;25.63;54.29
75006;BME280;63553;51.814;4.600;2023-06-26T02:24:56;101451.88;;;25.50;54.70
75006;BME280;63553;51.814;4.600;2023-06-26T02:27:21;101457.91;;;25.63;54.89
75006;BME280;63553;51.814;4.600;2023-06-26T02:29:47;101452.22;;;25.73;54.51
75006;BME280;63553;51.814;4.600;2023-06-26T02:32:12;101450.19;;;25.74;54.71
75006;BME280;63553;51.814;4.600;2023-06-26T02:34:37;101459.16;;;25.62;54.47
75006;BME280;63553;51.814;4.600;2023-06-26T02:37:03;101455.50;;;25.58;54.88
75006;BME280;63553;51.814;4.600;2023-06-26T02:39:28;101453.47;;;25.62;54.89
75006;BME280;63553;51.814;4.600;2023-06-26T02:41:54;101461.19;;;25.68;54.59
75006;BME280;63553;51.814;4.600;2023-06-26T02:44:19;101445.75;;;25.62;54.84
75006;BME280;63553;51.814;4.600;2023-06-26T02:46:44;101450.19;;;25.63;54.92
75006;BME280;63553;51.814;4.600;2023-06-26T02:49:10;101460.38;;;25.61;55.03
75006;BME280;63553;51.814;4.600;2023-06-26T02:51:35;101461.59;;;25.67;54.58
75006;BME280;63553;51.814;4.600;2023-06-26T02:54:01;101468.53;;;25.41;55.54
75006;BME280;63553;51.814;4.600;2023-06-26T02:56:26;101467.31;;;25.56;55.07
75006;BME280;63553;51.814;4.600;2023-06-26T02:58:58;101466.88;;;25.61;54.82
75006;BME280;63553;51.814;4.600;2023-06-26T03:01:23;101470.94;;;25.60;55.00
75006;BME280;63553;51.814;4.600;2023-06-26T03:03:49;101463.22;;;25.68;54.66
75006;BME280;63553;51.814;4.600;2023-06-26T03:06:14;101468.13;;;25.53;55.09
75006;BME280;63553;51.814;4.600;2023-06-26T03:08:40;101470.56;;;25.51;54.79
75006;BME280;63553;51.814;4.600;2023-06-26T03:11:06;101476.69;;;25.57;54.90
75006;BME280;63553;51.814;4.600;2023-06-26T03:13:35;101475.44;;;25.54;54.76
75006;BME280;63553;51.814;4.600;2023-06-26T03:16:01;101466.50;;;25.34;54.70
75006;BME280;63553;51.814;4.600;2023-06-26T03:18:27;101478.28;;;25.29;54.80
75006;BME280;63553;51.814;4.600;2023-06-26T03:20:53;101488.88;;;25.29;54.73
75006;BME280;63553;51.814;4.600;2023-06-26T03:23:22;101491.28;;;25.41;54.12
75006;BME280;63553;51.814;4.600;2023-06-26T03:25:48;101489.69;;;25.29;53.72
75006;BME280;63553;51.814;4.600;2023-06-26T03:28:14;101488.47;;;25.20;53.99
75006;BME280;63553;51.814;4.600;2023-06-26T03:30:39;101486.84;;;25.12;53.61
75006;BME280;63553;51.814;4.600;2023-06-26T03:33:04;101484.81;;;25.09;54.01
75006;BME280;63553;51.814;4.600;2023-06-26T03:35:30;101496.97;;;25.13;53.37
75006;BME280;63553;51.814;4.600;2023-06-26T03:37:55;101496.16;;;25.16;53.31
75006;BME280;63553;51.814;4.600;2023-06-26T03:40:20;101504.31;;;25.10;53.65
75006;BME280;63553;51.814;4.600;2023-06-26T03:42:46;101493.31;;;25.02;53.87
75006;BME280;63553;51.814;4.600;2023-06-26T03:45:11;101492.09;;;25.06;53.28
75006;BME280;63553;51.814;4.600;2023-06-26T03:47:36;101490.88;;;25.11;53.22
75006;BME280;63553;51.814;4.600;2023-06-26T03:50:02;101509.19;;;25.20;53.00
75006;BME280;63553;51.814;4.600;2023-06-26T03:52:28;101507.97;;;25.11;53.07
75006;BME280;63553;51.814;4.600;2023-06-26T03:54:57;101517.75;;;25.20;52.57
75006;BME280;63553;51.814;4.600;2023-06-26T03:57:22;101517.31;;;25.22;52.73
75006;BME280;63553;51.814;4.600;2023-06-26T03:59:47;101523.00;;;25.08;52.95
75006;BME280;63553;51.814;4.600;2023-06-26T04:02:13;101521.78;;;25.02;52.40
75006;BME280;63553;51.814;4.600;2023-06-26T04:04:38;101524.66;;;25.09;52.40
75006;BME280;63553;51.814;4.600;2023-06-26T04:07:04;101520.94;;;24.91;54.04
75006;BME280;63553;51.814;4.600;2023-06-26T04:09:29;101527.50;;;25.09;54.42
75006;BME280;63553;51.814;4.600;2023-06-26T04:11:55;101530.34;;;25.40;53.51
75006;BME280;63553;51.814;4.600;2023-06-26T04:14:20;101538.91;;;25.58;53.00
75006;BME280;63553;51.814;4.600;2023-06-26T04:16:45;101537.22;;;25.96;50.38
75006;BME280;63553;51.814;4.600;2023-06-26T04:19:11;101543.38;;;25.80;50.14
75006;BME280;63553;51.814;4.600;2023-06-26T04:21:36;101551.53;;;25.68;50.70
75006;BME280;63553;51.814;4.600;2023-06-26T04:24:02;101557.59;;;25.63;50.88
75006;BME280;63553;51.814;4.600;2023-06-26T04:26:27;101563.31;;;25.63;50.84
75006;BME280;63553;51.814;4.600;2023-06-26T04:28:53;101568.59;;;25.61;50.47
75006;BME280;63553;51.814;4.600;2023-06-26T04:31:19;101566.56;;;25.47;50.58
75006;BME280;63553;51.814;4.600;2023-06-26T04:33:44;101568.59;;;25.32;50.79
75006;BME280;63553;51.814;4.600;2023-06-26T04:36:10;101573.44;;;25.11;51.43
75006;BME280;63553;51.814;4.600;2023-06-26T04:38:36;101572.63;;;25.24;51.08
75006;BME280;63553;51.814;4.600;2023-06-26T04:41:01;101575.88;;;25.23;51.58
75006;BME280;63553;51.814;4.600;2023-06-26T04:43:27;101568.97;;;25.34;51.06
75006;BME280;63553;51.814;4.600;2023-06-26T04:45:53;101571.81;;;25.20;51.32
75006;BME280;63553;51.814;4.600;2023-06-26T04:48:19;101572.63;;;25.21;51.52
75006;BME280;63553;51.814;4.600;2023-06-26T04:50:44;101575.84;;;25.12;51.56
75006;BME280;63553;51.814;4.600;2023-06-26T04:53:17;101577.88;;;25.01;52.09
75006;BME280;63553;51.814;4.600;2023-06-26T04:55:43;101580.72;;;25.01;52.17
75006;BME280;63553;51.814;4.600;2023-06-26T04:58:08;101579.13;;;25.18;51.58
75006;BME280;63553;51.814;4.600;2023-06-26T05:00:33;101582.44;;;25.52;50.62
75006;BME280;63553;51.814;4.600;2023-06-26T05:03:01;101588.13;;;25.55;50.60
75006;BME280;63553;51.814;4.600;2023-06-26T05:05:27;101582.03;;;25.53;50.79
75006;BME280;63553;51.814;4.600;2023-06-26T05:07:56;101597.09;;;25.71;50.21
75006;BME280;63553;51.814;4.600;2023-06-26T05:10:22;101602.38;;;25.73;50.67
75006;BME280;63553;51.814;4.600;2023-06-26T05:12:47;101593.84;;;25.83;50.25
75006;BME280;63553;51.814;4.600;2023-06-26T05:15:12;101595.47;;;25.67;50.43
75006;BME280;63553;51.814;4.600;2023-06-26T05:17:38;101596.28;;;25.88;50.05
75006;BME280;63553;51.814;4.600;2023-06-26T05:20:03;101606.88;;;25.74;50.53
75006;BME280;63553;51.814;4.600;2023-06-26T05:22:33;101610.94;;;25.76;49.99
75006;BME280;63553;51.814;4.600;2023-06-26T05:25:00;101619.91;;;25.71;49.78
75006;BME280;63553;51.814;4.600;2023-06-26T05:27:28;101611.75;;;25.70;49.58
75006;BME280;63553;51.814;4.600;2023-06-26T05:29:54;101615.81;;;25.72;49.52
75006;BME280;63553;51.814;4.600;2023-06-26T05:32:19;101632.09;;;25.79;49.31
75006;BME280;63553;51.814;4.600;2023-06-26T05:34:48;101625.56;;;25.75;49.93
75006;BME280;63553;51.814;4.600;2023-06-26T05:37:20;101627.19;;;25.72;50.15
75006;BME280;63553;51.814;4.600;2023-06-26T05:39:47;101638.59;;;25.76;50.07
75006;BME280;63553;51.814;4.600;2023-06-26T05:42:13;101648.38;;;25.68;50.15
75006;BME280;63553;51.814;4.600;2023-06-26T05:44:38;101653.66;;;25.62;51.09
75006;BME280;63553;51.814;4.600;2023-06-26T05:47:04;101669.50;;;25.53;50.63
75006;BME280;63553;51.814;4.600;2023-06-26T05:49:29;101662.13;;;25.41;50.89
75006;BME280;63553;51.814;4.600;2023-06-26T05:51:55;101659.25;;;25.23;51.12
75006;BME280;63553;51.814;4.600;2023-06-26T05:54:20;101661.25;;;25.19;50.51
75006;BME280;63553;51.814;4.600;2023-06-26T05:56:47;101668.22;;;25.29;49.53
75006;BME280;63553;51.814;4.600;2023-06-26T05:59:14;101660.50;;;25.29;49.52
75006;BME280;63553;51.814;4.600;2023-06-26T06:01:40;101665.78;;;25.45;48.98
75006;BME280;63553;51.814;4.600;2023-06-26T06:04:06;101672.75;;;25.55;48.44
75006;BME280;63553;51.814;4.600;2023-06-26T06:06:31;101666.25;;;25.58;48.16
75006;BME280;63553;51.814;4.600;2023-06-26T06:08:56;101670.31;;;25.60;48.02
75006;BME280;63553;51.814;4.600;2023-06-26T06:11:22;101673.19;;;25.53;48.04
75006;BME280;63553;51.814;4.600;2023-06-26T06:13:48;101687.81;;;25.55;47.92
75006;BME280;63553;51.814;4.600;2023-06-26T06:16:13;101684.22;;;26.18;48.35
75006;BME280;63553;51.814;4.600;2023-06-26T06:18:38;101687.91;;;26.15;46.78
75006;BME280;63553;51.814;4.600;2023-06-26T06:21:04;101687.88;;;26.36;46.13
75006;BME280;63553;51.814;4.600;2023-06-26T06:23:29;101694.69;;;26.88;52.00
75006;BME280;63553;51.814;4.600;2023-06-26T06:25:55;101701.63;;;26.77;45.60
75006;BME280;63553;51.814;4.600;2023-06-26T06:28:20;101706.75;;;27.28;44.90
75006;BME280;63553;51.814;4.600;2023-06-26T06:30:45;101707.72;;;27.76;44.39
75006;BME280;63553;51.814;4.600;2023-06-26T06:33:13;101712.31;;;26.30;44.93
75006;BME280;63553;51.814;4.600;2023-06-26T06:35:38;101720.78;;;25.60;47.39
75006;BME280;63553;51.814;4.600;2023-06-26T06:38:04;101728.81;;;25.26;47.59
75006;BME280;63553;51.814;4.600;2023-06-26T06:40:29;101731.16;;;25.10;47.66
75006;BME280;63553;51.814;4.600;2023-06-26T06:42:54;101722.41;;;25.54;46.14
75006;BME280;63553;51.814;4.600;2023-06-26T06:45:20;101727.72;;;25.69;46.27
75006;BME280;63553;51.814;4.600;2023-06-26T06:47:45;101741.94;;;25.55;46.13
75006;BME280;63553;51.814;4.600;2023-06-26T06:50:10;101739.94;;;25.73;45.73
75006;BME280;63553;51.814;4.600;2023-06-26T06:52:40;101746.69;;;25.26;47.10
75006;BME280;63553;51.814;4.600;2023-06-26T06:55:06;101765.72;;;25.08;47.31
75006;BME280;63553;51.814;4.600;2023-06-26T06:57:37;101768.66;;;25.26;46.73
75006;BME280;63553;51.814;4.600;2023-06-26T07:00:12;101772.78;;;25.46;46.74
75006;BME280;63553;51.814;4.600;2023-06-26T07:02:45;101758.75;;;26.20;45.09
75006;BME280;63553;51.814;4.600;2023-06-26T07:05:11;101757.91;;;26.06;45.16
75006;BME280;63553;51.814;4.600;2023-06-26T07:07:37;101766.84;;;25.93;45.05
75006;BME280;63553;51.814;4.600;2023-06-26T07:10:09;101762.44;;;26.24;43.84
75006;BME280;63553;51.814;4.600;2023-06-26T07:12:35;101768.09;;;26.07;44.12
75006;BME280;63553;51.814;4.600;2023-06-26T07:15:02;101764.78;;;25.87;44.30
75006;BME280;63553;51.814;4.600;2023-06-26T07:17:29;101768.47;;;26.05;43.74
75006;BME280;63553;51.814;4.600;2023-06-26T07:19:55;101775.81;;;26.06;43.47
75006;BME280;63553;51.814;4.600;2023-06-26T07:22:20;101786.38;;;26.02;43.97
75006;BME280;63553;51.814;4.600;2023-06-26T07:24:48;101783.16;;;26.11;43.82
75006;BME280;63553;51.814;4.600;2023-06-26T07:27:15;101790.13;;;26.41;43.69
75006;BME280;63553;51.814;4.600;2023-06-26T07:29:41;101786.56;;;28.29;41.23
75006;BME280;63553;51.814;4.600;2023-06-26T07:32:07;101778.38;;;29.16;40.02
75006;BME280;63553;51.814;4.600;2023-06-26T07:34:32;101790.50;;;29.61;39.05
75006;BME280;63553;51.814;4.600;2023-06-26T07:36:58;101796.81;;;30.06;38.58
75006;BME280;63553;51.814;4.600;2023-06-26T07:39:23;101801.31;;;30.34;38.55
75006;BME280;63553;51.814;4.600;2023-06-26T07:41:48;101798.47;;;28.24;39.10
75006;BME280;63553;51.814;4.600;2023-06-26T07:44:14;101795.66;;;27.40;40.30
75006;BME280;63553;51.814;4.600;2023-06-26T07:46:39;101791.72;;;26.99;41.98
75006;BME280;63553;51.814;4.600;2023-06-26T07:49:05;101803.53;;;27.08;41.13
75006;BME280;63553;51.814;4.600;2023-06-26T07:51:30;101795.81;;;28.47;39.33
75006;BME280;63553;51.814;4.600;2023-06-26T07:53:55;101807.28;;;29.62;37.95
75006;BME280;63553;51.814;4.600;2023-06-26T07:56:20;101807.63;;;27.94;39.94
75006;BME280;63553;51.814;4.600;2023-06-26T07:58:46;101816.91;;;27.29;41.32
75006;BME280;63553;51.814;4.600;2023-06-26T08:01:11;101823.03;;;27.24;40.94
75006;BME280;63553;51.814;4.600;2023-06-26T08:03:37;101814.44;;;27.34;40.88
75006;BME280;63553;51.814;4.600;2023-06-26T08:06:02;101823.50;;;26.90;41.67
75006;BME280;63553;51.814;4.600;2023-06-26T08:08:28;101826.41;;;26.80;42.33
75006;BME280;63553;51.814;4.600;2023-06-26T08:10:54;101824.75;;;26.65;42.57
75006;BME280;63553;51.814;4.600;2023-06-26T08:13:19;101830.44;;;26.61;42.19
75006;BME280;63553;51.814;4.600;2023-06-26T08:15:45;101823.50;;;26.73;42.41
75006;BME280;63553;51.814;4.600;2023-06-26T08:18:10;101825.56;;;26.86;42.42
75006;BME280;63553;51.814;4.600;2023-06-26T08:20:35;101829.59;;;27.10;41.50
75006;BME280;63553;51.814;4.600;2023-06-26T08:23:03;101836.09;;;27.21;41.84
75006;BME280;63553;51.814;4.600;2023-06-26T08:25:28;101841.03;;;27.10;41.76
75006;BME280;63553;51.814;4.600;2023-06-26T08:27:54;101847.13;;;27.19;41.77
75006;BME280;63553;51.814;4.600;2023-06-26T08:30:20;101841.00;;;27.21;41.82
75006;BME280;63553;51.814;4.600;2023-06-26T08:32:46;101841.81;;;27.21;41.71
75006;BME280;63553;51.814;4.600;2023-06-26T08:35:11;101838.94;;;27.25;41.09
75006;BME280;63553;51.814;4.600;2023-06-26T08:37:37;101847.56;;;27.11;41.29
75006;BME280;63553;51.814;4.600;2023-06-26T08:40:03;101847.56;;;26.72;42.05
75006;BME280;63553;51.814;4.600;2023-06-26T08:42:29;101854.09;;;26.69;42.20
75006;BME280;63553;51.814;4.600;2023-06-26T08:44:55;101852.88;;;26.41;43.07
75006;BME280;63553;51.814;4.600;2023-06-26T08:47:21;101857.34;;;26.78;41.72
75006;BME280;63553;51.814;4.600;2023-06-26T08:52:22;101866.72;;;26.64;42.29
75006;BME280;63553;51.814;4.600;2023-06-26T08:54:56;101875.69;;;26.31;42.67
75006;BME280;63553;51.814;4.600;2023-06-26T08:57:23;101868.75;;;26.32;43.12
75006;BME280;63553;51.814;4.600;2023-06-26T08:59:50;101863.06;;;26.42;42.64
75006;BME280;63553;51.814;4.600;2023-06-26T09:02:16;101860.19;;;26.71;42.38
75006;BME280;63553;51.814;4.600;2023-06-26T09:04:42;101864.28;;;26.56;42.62
75006;BME280;63553;51.814;4.600;2023-06-26T09:07:07;101873.66;;;26.88;42.28
75006;BME280;63553;51.814;4.600;2023-06-26T09:09:33;101883.72;;;26.08;43.42
75006;BME280;63553;51.814;4.600;2023-06-26T09:11:58;101874.06;;;26.55;42.06
75006;BME280;63553;51.814;4.600;2023-06-26T09:14:24;101889.97;;;26.59;42.33
75006;BME280;63553;51.814;4.600;2023-06-26T09:16:50;101883.06;;;26.88;41.76
75006;BME280;63553;51.814;4.600;2023-06-26T09:19:15;101885.06;;;27.13;41.33
75006;BME280;63553;51.814;4.600;2023-06-26T09:21:42;101891.59;;;27.02;41.31
75006;BME280;63553;51.814;4.600;2023-06-26T09:24:09;101891.16;;;27.46;40.76
75006;BME280;63553;51.814;4.600;2023-06-26T09:26:38;101888.75;;;27.17;40.87
75006;BME280;63553;51.814;4.600;2023-06-26T09:29:05;101898.53;;;27.09;41.65
75006;BME280;63553;51.814;4.600;2023-06-26T09:31:32;101908.31;;;26.97;41.38
75006;BME280;63553;51.814;4.600;2023-06-26T09:33:59;101911.56;;;27.34;40.90
75006;BME280;63553;51.814;4.600;2023-06-26T09:36:27;101912.00;;;26.94;41.67
75006;BME280;63553;51.814;4.600;2023-06-26T09:38:53;101919.69;;;26.40;42.87
75006;BME280;63553;51.814;4.600;2023-06-26T09:41:19;101918.41;;;27.72;40.84
75006;BME280;63553;51.814;4.600;2023-06-26T09:43:46;101910.75;;;28.38;39.60
75006;BME280;63553;51.814;4.600;2023-06-26T09:46:15;101921.25;;;28.55;40.22
75006;BME280;63553;51.814;4.600;2023-06-26T09:48:41;101926.88;;;28.73;39.70
75006;BME280;63553;51.814;4.600;2023-06-26T09:51:07;101924.59;;;28.98;39.31
75006;BME280;63553;51.814;4.600;2023-06-26T09:53:35;101927.09;;;28.96;39.36
75006;BME280;63553;51.814;4.600;2023-06-26T09:56:05;101928.63;;;29.04;38.89
75006;BME280;63553;51.814;4.600;2023-06-26T09:58:32;101934.84;;;28.96;38.88
75006;BME280;63553;51.814;4.600;2023-06-26T10:00:57;101935.69;;;28.93;39.51
75006;BME280;63553;51.814;4.600;2023-06-26T10:03:23;101935.38;;;28.84;39.89
75006;BME280;63553;51.814;4.600;2023-06-26T10:05:48;101937.50;;;28.73;40.01
75006;BME280;63553;51.814;4.600;2023-06-26T10:08:15;101938.81;;;28.57;40.34
75006;BME280;63553;51.814;4.600;2023-06-26T10:10:41;101925.69;;;28.67;39.73
75006;BME280;63553;51.814;4.600;2023-06-26T10:13:22;101949.28;;;28.85;40.03
75006;BME280;63553;51.814;4.600;2023-06-26T10:15:49;101953.34;;;28.88;40.34
75006;BME280;63553;51.814;4.600;2023-06-26T10:18:17;101954.28;;;28.74;40.52
75006;BME280;63553;51.814;4.600;2023-06-26T10:20:47;101960.84;;;28.71;41.37
75006;BME280;63553;51.814;4.600;2023-06-26T10:23:14;101950.72;;;28.49;42.13
75006;BME280;63553;51.814;4.600;2023-06-26T10:25:42;101956.91;;;28.44;47.50
75006;BME280;63553;51.814;4.600;2023-06-26T10:28:10;101947.69;;;28.04;43.59
75006;BME280;63553;51.814;4.600;2023-06-26T10:30:38;101958.09;;;27.14;44.20
75006;BME280;63553;51.814;4.600;2023-06-26T10:33:05;101963.72;;;26.50;43.71
75006;BME280;63553;51.814;4.600;2023-06-26T10:35:31;101970.78;;;25.87;43.88
75006;BME280;63553;51.814;4.600;2023-06-26T10:38:01;101967.50;;;25.82;43.94
75006;BME280;63553;51.814;4.600;2023-06-26T10:40:44;101975.91;;;25.54;44.31
75006;BME280;63553;51.814;4.600;2023-06-26T10:43:12;101971.28;;;25.42;44.40
75006;BME280;63553;51.814;4.600;2023-06-26T10:45:45;101982.47;;;25.14;44.82
75006;BME280;63553;51.814;4.600;2023-06-26T10:48:15;101984.78;;;24.98;45.00
75006;BME280;63553;51.814;4.600;2023-06-26T10:50:41;101974.91;;;24.84;44.71
75006;BME280;63553;51.814;4.600;2023-06-26T10:56:02;101962.31;;;25.36;43.88
75006;BME280;63553;51.814;4.600;2023-06-26T10:58:40;101978.00;;;25.13;44.00
75006;BME280;63553;51.814;4.600;2023-06-26T11:03:45;101997.88;;;25.09;42.73
75006;BME280;63553;51.814;4.600;2023-06-26T11:06:17;101999.78;;;24.95;42.38
75006;BME280;63553;51.814;4.600;2023-06-26T11:08:50;102006.88;;;25.11;42.07
75006;BME280;63553;51.814;4.600;2023-06-26T11:11:17;102001.72;;;24.83;42.48
75006;BME280;63553;51.814;4.600;2023-06-26T11:13:45;102004.25;;;24.59;42.76
75006;BME280;63553;51.814;4.600;2023-06-26T11:16:11;101997.88;;;24.69;42.33
75006;BME280;63553;51.814;4.600;2023-06-26T11:18:38;101997.44;;;24.63;42.58
75006;BME280;63553;51.814;4.600;2023-06-26T11:21:11;102009.16;;;24.58;43.02
75006;BME280;63553;51.814;4.600;2023-06-26T11:23:40;102021.66;;;24.50;42.67
75006;BME280;63553;51.814;4.600;2023-06-26T11:26:16;102025.53;;;24.35;42.64
75006;BME280;63553;51.814;4.600;2023-06-26T11:28:54;102032.38;;;24.30;42.52
75006;BME280;63553;51.814;4.600;2023-06-26T11:31:33;102033.09;;;24.24;41.75
75006;BME280;63553;51.814;4.600;2023-06-26T11:34:03;102031.97;;;24.32;41.99
75006;BME280;63553;51.814;4.600;2023-06-26T11:36:29;102024.69;;;24.31;41.07
75006;BME280;63553;51.814;4.600;2023-06-26T11:38:56;102031.13;;;24.28;41.69
75006;BME280;63553;51.814;4.600;2023-06-26T11:41:23;102030.22;;;24.20;41.91
75006;BME280;63553;51.814;4.600;2023-06-26T11:43:49;102049.63;;;24.15;42.14
75006;BME280;63553;51.814;4.600;2023-06-26T11:46:22;102049.13;;;24.09;42.39
75006;BME280;63553;51.814;4.600;2023-06-26T11:48:48;102053.16;;;24.08;42.37
75006;BME280;63553;51.814;4.600;2023-06-26T11:51:14;102053.44;;;24.00;42.54
75006;BME280;63553;51.814;4.600;2023-06-26T11:53:45;102058.41;;;24.32;42.37
75006;BME280;63553;51.814;4.600;2023-06-26T11:56:12;102066.63;;;24.41;42.20
75006;BME280;63553;51.814;4.600;2023-06-26T11:58:57;102065.59;;;24.56;41.40
75006;BME280;63553;51.814;4.600;2023-06-26T12:01:24;102072.16;;;24.60;41.98
75006;BME280;63553;51.814;4.600;2023-06-26T12:03:50;102072.16;;;24.60;42.72
75006;BME280;63553;51.814;4.600;2023-06-26T12:06:16;102070.09;;;24.57;42.88
75006;BME280;63553;51.814;4.600;2023-06-26T12:08:42;102064.72;;;24.85;42.15
75006;BME280;63553;51.814;4.600;2023-06-26T12:11:08;102074.22;;;24.97;42.23
75006;BME280;63553;51.814;4.600;2023-06-26T12:13:34;102078.13;;;24.81;41.85
75006;BME280;63553;51.814;4.600;2023-06-26T12:15:59;102085.84;;;24.81;41.16
75006;BME280;63553;51.814;4.600;2023-06-26T12:18:25;102084.91;;;24.73;41.27
75006;BME280;63553;51.814;4.600;2023-06-26T12:20:51;102085.28;;;24.72;41.50
75006;BME280;63553;51.814;4.600;2023-06-26T12:23:17;102087.41;;;24.78;41.43
75006;BME280;63553;51.814;4.600;2023-06-26T12:25:43;102082.28;;;24.91;41.32
75006;BME280;63553;51.814;4.600;2023-06-26T12:28:18;102083.59;;;25.01;41.43
75006;BME280;63553;51.814;4.600;2023-06-26T12:30:47;102082.31;;;24.95;41.18
75006;BME280;63553;51.814;4.600;2023-06-26T12:33:32;102086.84;;;24.99;41.23
75006;BME280;63553;51.814;4.600;2023-06-26T12:35:58;102085.59;;;24.97;41.07
75006;BME280;63553;51.814;4.600;2023-06-26T12:38:23;102090.06;;;24.98;41.12
75006;BME280;63553;51.814;4.600;2023-06-26T12:40:48;102094.69;;;25.13;41.43
75006;BME280;63553;51.814;4.600;2023-06-26T12:43:26;102094.25;;;24.74;42.39
75006;BME280;63553;51.814;4.600;2023-06-26T12:45:55;102089.53;;;24.85;41.80
75006;BME280;63553;51.814;4.600;2023-06-26T12:48:40;102081.78;;;24.82;41.98
75006;BME280;63553;51.814;4.600;2023-06-26T12:51:15;102089.50;;;24.81;41.99
75006;BME280;63553;51.814;4.600;2023-06-26T12:53:41;102099.22;;;24.80;41.39
75006;BME280;63553;51.814;4.600;2023-06-26T12:56:08;102094.88;;;24.90;41.50
75006;BME280;63553;51.814;4.600;2023-06-26T12:58:34;102096.84;;;24.86;41.15
75006;BME280;63553;51.814;4.600;2023-06-26T13:01:02;102093.53;;;24.80;41.42